Aérodrome :
LOGIN :

S'inscrire | Disclaimer

   EN    FR    IT 

 










Légende :    VFR   VFR Marginal   IFR   IFR Intensif   IFR Très Intensif
Visi : 
Plafond : 
>= 8 km
>= 3000ft
5 à 8 km
1000 à 3000 ft
1500m à 5 km
500 à 1000 ft
800 à 1500m
200 à 500 ft
< 800m
< 200 ft
Symboles :   Orages  Brouillard  Fortes neiges  Fortes précipitations  Vent > 20 kt
SIGMETs :   Divers  Orages  Givrage  Turbulence  Onde Orograph.  Cendres Volcan.






- Altitude de l'aérodrome : 202 ft
- Code IATA : LGW


EGKK - London Gatwick

DERNIER METAR :
  • 030750Z VRB01KT 9999 FEW020 15/12 Q1013

METARs EXPIRÉS :
  • 030720Z VRB01KT 9999 FEW032 15/13 Q1013
  • 030650Z VRB01KT 9000 VCFG NSC 14/13 Q1013
  • 030620Z VRB02KT 7000 1200NW R08R/P1500 PRFG NSC 12/11 Q1013
  • 030550Z VRB01KT 1500 R08R/1100 PRFG NSC 11/11 Q1013
  • 030520Z 03002KT 1500 BCFG NSC 10/10 Q1013
  • 030450Z 09002KT 0750 R08R/0900 FG NSC 10/09 Q1013

TAF TAF EGKK
Valide du 03 à 06h jusqu'au 04 à 12h UTC


030459Z 0306/0412 12004KT 2000 PRFG FEW030
BECMG 0306/0308 9999 NSW
PROB30
TEMPO 0309/0319 7000 SHRA
TEMPO 0323/0408 7000
PROB40 0403/0407 3000 BR BKN003
PROB30
TEMPO 0409/0412 7000 SHRA



MET'MAP, la Météo Aéronautique d'un coup d'oeil ! - Copyright ORBIFLY Décembre 2007 - Disclaimer

ORBIFLY MET'MAP TEAM :

Programmation & Développement : Alexandra Zaïnal
Sur une idée originale de : Baudouin d'Aumeries
Assistance à la programmation : Marc-Olivier Méhu
Soutien technique & logistique : Manuel Goepfert

Contact : metmap@orbifly.com




SOURCES & CREDITS :

   NOAA